Time;durP1;ratioP1;P1;durP2;ratioP2;P2;SDS_P1;SDS_P2;PMS_P1;PMS_P2;Temp;Humidity;BMP_temperature;BMP_pressure;BME280_temperature;BME280_humidity;BME280_pressure;Samples;Min_cycle;Max_cycle;Signal;HPM_P1;HPM_P2
2024/05/07 00:00:56;;;;;;;44.70;33.30;;;15.40;99.90;;;;;;5446385;26;20274;-81
2024/05/07 00:03:21;;;;;;;43.57;31.93;;;15.50;99.90;;;;;;5412797;26;20260;-80
2024/05/07 00:05:47;;;;;;;45.83;33.73;;;15.50;99.90;;;;;;5445691;26;20244;-80
2024/05/07 00:08:12;;;;;;;43.83;32.80;;;15.50;99.90;;;;;;5449572;26;20291;-80
2024/05/07 00:10:38;;;;;;;45.90;33.97;;;15.50;99.90;;;;;;5449018;26;20342;-79
2024/05/07 00:13:10;;;;;;;49.27;35.57;;;15.50;99.90;;;;;;5447587;26;20259;-81
2024/05/07 00:15:36;;;;;;;46.37;34.43;;;15.60;99.90;;;;;;5413730;26;20714;-82
2024/05/07 00:18:02;;;;;;;47.07;33.57;;;15.50;99.90;;;;;;5447712;26;20288;-81
2024/05/07 00:20:27;;;;;;;43.40;32.20;;;15.50;99.90;;;;;;5448985;26;20345;-80
2024/05/07 00:22:53;;;;;;;44.20;32.53;;;15.60;99.90;;;;;;5449365;26;20426;-81
2024/05/07 00:25:18;;;;;;;43.93;32.60;;;15.60;99.90;;;;;;5449130;26;20689;-80
2024/05/07 00:27:44;;;;;;;51.23;34.63;;;15.60;99.90;;;;;;5449334;26;20568;-82
2024/05/07 00:30:10;;;;;;;44.90;33.73;;;15.60;99.90;;;;;;5449447;26;20238;-81
2024/05/07 00:32:36;;;;;;;45.23;33.90;;;15.50;99.90;;;;;;5450062;26;20240;-80
2024/05/07 00:35:01;;;;;;;48.80;34.67;;;15.50;99.90;;;;;;5449144;26;20237;-80
2024/05/07 00:37:27;;;;;;;44.43;34.07;;;15.50;99.90;;;;;;5448853;26;20236;-80
2024/05/07 00:39:52;;;;;;;42.87;32.67;;;15.50;99.90;;;;;;5448458;26;20806;-80
2024/05/07 00:42:18;;;;;;;49.90;33.57;;;15.40;99.90;;;;;;5449002;26;20236;-81
2024/05/07 00:44:43;;;;;;;43.40;31.73;;;15.40;99.90;;;;;;5444626;26;20237;-81
2024/05/07 00:47:11;;;;;;;44.47;32.53;;;15.40;99.90;;;;;;5440220;26;20746;-81
2024/05/07 00:49:37;;;;;;;44.70;33.03;;;15.40;99.90;;;;;;5412124;26;20288;-80
2024/05/07 00:52:03;;;;;;;42.40;32.17;;;15.30;99.90;;;;;;5445416;26;20244;-79
2024/05/07 00:54:29;;;;;;;44.87;32.50;;;15.30;99.90;;;;;;5445574;26;20244;-79
2024/05/07 00:56:55;;;;;;;44.43;32.10;;;15.30;99.90;;;;;;5446667;26;20754;-80
2024/05/07 00:59:21;;;;;;;41.93;31.87;;;15.30;99.90;;;;;;5436264;26;20287;-79
2024/05/07 01:01:48;;;;;;;41.40;31.70;;;15.30;99.90;;;;;;5412465;26;20227;-80
2024/05/07 01:04:13;;;;;;;42.63;30.20;;;15.20;99.90;;;;;;5410946;26;20268;-80
2024/05/07 01:06:39;;;;;;;42.80;32.27;;;15.20;99.90;;;;;;5447322;26;20245;-79
2024/05/07 01:09:07;;;;;;;42.43;31.30;;;15.20;99.90;;;;;;5432701;26;20241;-80
2024/05/07 01:11:36;;;;;;;42.70;32.10;;;15.20;99.90;;;;;;5437261;26;20250;-81
2024/05/07 01:14:05;;;;;;;42.83;33.20;;;15.20;99.90;;;;;;5410482;26;20335;-80
2024/05/07 01:16:30;;;;;;;42.03;32.13;;;15.20;99.90;;;;;;5447730;26;20243;-79
2024/05/07 01:18:56;;;;;;;42.57;32.20;;;15.30;99.90;;;;;;5448485;26;20276;-80
2024/05/07 01:21:22;;;;;;;39.27;29.90;;;15.30;99.90;;;;;;5446280;26;20240;-80
2024/05/07 01:23:49;;;;;;;39.87;31.27;;;15.20;99.90;;;;;;5419957;26;20771;-80
2024/05/07 01:26:15;;;;;;;40.43;31.10;;;15.30;99.90;;;;;;5445588;26;20275;-81
2024/05/07 01:28:40;;;;;;;41.33;30.27;;;15.30;99.90;;;;;;5451591;26;20240;-81
2024/05/07 01:31:06;;;;;;;40.43;31.30;;;15.30;99.90;;;;;;5446843;26;20275;-81
2024/05/07 01:33:31;;;;;;;38.20;29.20;;;15.20;99.90;;;;;;5448134;26;20237;-79
2024/05/07 01:35:58;;;;;;;37.00;28.50;;;15.20;99.90;;;;;;5447455;26;20237;-81
2024/05/07 01:38:23;;;;;;;37.13;28.67;;;15.20;99.90;;;;;;5446359;26;20299;-80
2024/05/07 01:40:49;;;;;;;36.00;28.73;;;15.20;99.90;;;;;;5411335;26;20245;-81
2024/05/07 01:43:15;;;;;;;38.00;29.20;;;15.20;99.90;;;;;;5444359;26;20244;-81
2024/05/07 01:45:40;;;;;;;39.67;28.83;;;15.20;99.90;;;;;;5442557;26;20575;-81
2024/05/07 01:48:06;;;;;;;37.30;28.47;;;15.20;99.90;;;;;;5413303;26;20276;-81
2024/05/07 01:50:32;;;;;;;36.53;27.97;;;15.20;99.90;;;;;;5447670;26;20268;-82
2024/05/07 01:52:58;;;;;;;36.97;28.70;;;15.20;99.90;;;;;;5447247;26;20270;-81
2024/05/07 01:55:23;;;;;;;34.00;27.80;;;15.20;99.90;;;;;;5437358;26;20245;-82
2024/05/07 01:57:49;;;;;;;35.90;27.33;;;15.20;99.90;;;;;;5439673;26;20749;-81
2024/05/07 02:00:14;;;;;;;36.20;27.00;;;15.20;99.90;;;;;;5444200;26;20290;-81
2024/05/07 02:02:41;;;;;;;36.77;27.17;;;15.10;99.90;;;;;;5447617;26;20237;-80
2024/05/07 02:05:07;;;;;;;35.67;26.50;;;15.10;99.90;;;;;;5422726;26;20244;-80
2024/05/07 02:07:36;;;;;;;33.97;26.23;;;15.10;99.90;;;;;;5449414;26;20315;-81
2024/05/07 02:10:01;;;;;;;35.40;26.93;;;15.10;99.90;;;;;;5409425;26;20245;-80
2024/05/07 02:12:27;;;;;;;31.23;26.07;;;15.20;99.90;;;;;;5438980;26;20346;-82
2024/05/07 02:14:52;;;;;;;32.07;26.53;;;15.20;99.90;;;;;;5410321;26;20312;-80
2024/05/07 02:17:18;;;;;;;34.20;26.50;;;15.20;99.90;;;;;;5445837;26;20574;-79
2024/05/07 02:19:43;;;;;;;33.53;26.00;;;15.10;99.90;;;;;;5447543;26;20252;-81
2024/05/07 02:22:09;;;;;;;33.50;27.33;;;15.10;99.90;;;;;;5445997;26;20271;-79
2024/05/07 02:24:35;;;;;;;32.07;25.27;;;15.00;99.90;;;;;;5444253;26;20241;-80
2024/05/07 02:27:00;;;;;;;31.30;24.93;;;15.00;99.90;;;;;;5447279;26;20289;-80
2024/05/07 02:29:26;;;;;;;32.83;25.90;;;15.00;99.90;;;;;;5444898;26;20341;-80
2024/05/07 02:31:51;;;;;;;33.80;26.70;;;15.10;99.90;;;;;;5447242;26;20779;-80
2024/05/07 02:34:17;;;;;;;34.00;25.60;;;15.10;99.90;;;;;;5445715;26;20238;-80
2024/05/07 02:36:42;;;;;;;33.20;24.50;;;15.10;99.90;;;;;;5410961;26;20249;-79
2024/05/07 02:39:08;;;;;;;31.23;24.37;;;15.00;99.90;;;;;;5446622;26;20239;-81
2024/05/07 02:41:33;;;;;;;28.73;22.63;;;14.90;99.90;;;;;;5410967;26;20298;-81
2024/05/07 02:43:59;;;;;;;29.07;23.23;;;14.80;99.90;;;;;;5427258;26;20241;-79
2024/05/07 02:46:24;;;;;;;32.23;24.37;;;14.80;99.90;;;;;;5415027;26;20229;-80
2024/05/07 02:48:50;;;;;;;30.97;24.07;;;14.70;99.90;;;;;;5462090;26;20300;-79
2024/05/07 02:51:17;;;;;;;30.37;24.47;;;14.70;99.90;;;;;;5446970;26;20788;-81
2024/05/07 02:53:43;;;;;;;30.43;24.73;;;14.70;99.90;;;;;;5444048;26;20254;-80
2024/05/07 02:56:08;;;;;;;31.23;24.70;;;14.70;99.90;;;;;;5445551;26;20236;-80
2024/05/07 02:58:34;;;;;;;30.80;24.83;;;14.70;99.90;;;;;;5444814;26;20740;-79
2024/05/07 03:00:59;;;;;;;33.10;25.43;;;14.60;99.90;;;;;;5445697;26;20362;-79
2024/05/07 03:03:25;;;;;;;28.17;23.97;;;14.60;99.90;;;;;;5443594;26;20669;-80
2024/05/07 03:05:53;;;;;;;34.27;26.07;;;14.60;99.90;;;;;;5446050;26;20248;-79
2024/05/07 03:08:19;;;;;;;34.97;26.83;;;14.60;99.90;;;;;;5445585;26;20255;-81
2024/05/07 03:10:44;;;;;;;29.77;24.37;;;14.60;99.90;;;;;;5444582;26;20294;-80
2024/05/07 03:13:11;;;;;;;34.00;26.17;;;14.50;99.90;;;;;;5443579;26;20235;-80
2024/05/07 03:15:36;;;;;;;31.70;24.47;;;14.50;99.90;;;;;;5443354;26;20273;-82
2024/05/07 03:18:03;;;;;;;35.43;26.63;;;14.50;99.90;;;;;;5409728;26;20248;-83
2024/05/07 03:20:29;;;;;;;31.53;26.03;;;14.50;99.90;;;;;;5415434;26;20295;-79
2024/05/07 03:22:54;;;;;;;32.37;26.03;;;14.50;99.90;;;;;;5445739;26;20240;-81
2024/05/07 03:25:21;;;;;;;29.93;26.47;;;14.50;99.90;;;;;;5444753;26;20237;-79
2024/05/07 03:27:48;;;;;;;33.10;25.20;;;14.50;99.90;;;;;;5446569;26;20547;-78
2024/05/07 03:30:13;;;;;;;31.10;25.83;;;14.50;99.90;;;;;;5448714;26;20355;-82
2024/05/07 03:32:39;;;;;;;33.70;26.33;;;14.50;99.90;;;;;;5446563;26;20837;-79
2024/05/07 03:35:05;;;;;;;33.43;26.67;;;14.40;99.90;;;;;;5433996;26;20282;-80
2024/05/07 03:37:30;;;;;;;33.37;26.97;;;14.40;99.90;;;;;;5413488;26;20291;-80
2024/05/07 03:39:56;;;;;;;31.23;26.30;;;14.50;99.90;;;;;;5410593;26;20257;-80
2024/05/07 03:42:21;;;;;;;35.53;27.60;;;14.60;99.90;;;;;;5445236;26;20411;-79
2024/05/07 03:44:47;;;;;;;30.13;26.03;;;14.60;99.90;;;;;;5443923;26;20239;-81
2024/05/07 03:47:13;;;;;;;35.00;26.77;;;14.70;99.90;;;;;;5446236;26;20438;-81
2024/05/07 03:49:41;;;;;;;30.10;26.50;;;14.60;99.90;;;;;;5412028;26;20288;-81
2024/05/07 03:52:07;;;;;;;31.80;26.27;;;14.70;99.90;;;;;;5441519;26;20597;-78
2024/05/07 03:54:33;;;;;;;30.53;24.23;;;14.60;99.90;;;;;;5446824;26;20285;-81
2024/05/07 03:56:58;;;;;;;30.53;26.00;;;14.60;99.90;;;;;;5446091;26;20259;-79
2024/05/07 03:59:24;;;;;;;32.27;26.60;;;14.60;99.90;;;;;;5412080;26;20244;-79
2024/05/07 04:01:50;;;;;;;29.27;25.70;;;14.60;99.90;;;;;;5410545;26;20262;-81
2024/05/07 04:04:15;;;;;;;29.47;25.00;;;14.70;99.90;;;;;;5439108;26;20244;-79
2024/05/07 04:06:41;;;;;;;28.83;24.63;;;14.60;99.90;;;;;;5409829;26;20244;-80
2024/05/07 04:09:07;;;;;;;30.40;24.57;;;14.60;99.90;;;;;;5443315;26;20240;-80
2024/05/07 04:11:33;;;;;;;29.37;25.80;;;14.60;99.90;;;;;;5447668;26;20294;-80
2024/05/07 04:13:58;;;;;;;29.77;24.80;;;14.60;99.90;;;;;;5447681;26;20772;-80
2024/05/07 04:16:24;;;;;;;29.90;24.83;;;14.70;99.90;;;;;;5448269;26;20239;-80
2024/05/07 04:18:49;;;;;;;32.27;26.23;;;14.70;99.90;;;;;;5445687;26;20288;-80
2024/05/07 04:21:15;;;;;;;31.57;26.77;;;14.80;99.90;;;;;;5449630;26;20270;-80
2024/05/07 04:23:41;;;;;;;29.53;24.90;;;14.80;99.90;;;;;;5410115;26;20245;-81
2024/05/07 04:26:07;;;;;;;31.67;24.77;;;14.80;99.90;;;;;;5447048;26;20252;-82
2024/05/07 04:28:32;;;;;;;29.30;24.43;;;14.80;99.90;;;;;;5468660;26;20279;-81
2024/05/07 04:30:58;;;;;;;30.30;25.30;;;14.80;99.90;;;;;;5451073;26;20340;-80
2024/05/07 04:33:23;;;;;;;30.30;24.37;;;14.80;99.90;;;;;;5447524;26;20291;-80
2024/05/07 04:35:49;;;;;;;30.80;25.00;;;14.80;99.90;;;;;;5447285;26;20286;-80
2024/05/07 04:38:14;;;;;;;31.00;24.43;;;14.80;99.90;;;;;;5446412;26;20332;-81
2024/05/07 04:40:40;;;;;;;27.47;24.10;;;14.80;99.90;;;;;;5410731;26;20252;-79
2024/05/07 04:43:12;;;;;;;31.50;23.60;;;14.80;99.90;;;;;;5439049;26;20765;-81
2024/05/07 04:45:38;;;;;;;31.20;24.50;;;14.70;99.90;;;;;;5406109;26;20236;-81
2024/05/07 04:48:07;;;;;;;31.40;24.13;;;14.70;99.90;;;;;;5446195;26;20743;-81
2024/05/07 04:50:32;;;;;;;28.77;21.63;;;14.70;99.90;;;;;;5446624;26;20287;-79
2024/05/07 04:52:58;;;;;;;33.17;24.80;;;14.60;99.90;;;;;;5446168;26;20298;-81
2024/05/07 04:55:24;;;;;;;30.93;24.63;;;14.70;99.90;;;;;;5445400;26;20240;-81
2024/05/07 04:57:49;;;;;;;26.63;23.27;;;14.70;99.90;;;;;;5447396;26;20240;-81
2024/05/07 05:00:15;;;;;;;28.93;23.80;;;14.70;99.90;;;;;;5447466;26;20244;-82
2024/05/07 05:02:40;;;;;;;27.87;22.07;;;14.70;99.90;;;;;;5448013;26;20282;-79
2024/05/07 05:05:06;;;;;;;27.77;21.53;;;14.80;99.90;;;;;;5445688;26;20248;-81
2024/05/07 05:07:31;;;;;;;22.93;19.43;;;14.80;99.90;;;;;;5410432;26;20672;-81
2024/05/07 05:09:57;;;;;;;24.40;20.70;;;14.80;99.90;;;;;;5446282;26;20240;-81
2024/05/07 05:12:22;;;;;;;27.30;21.00;;;14.80;99.90;;;;;;5410964;26;20667;-81
2024/05/07 05:14:48;;;;;;;27.10;20.40;;;14.70;99.90;;;;;;5445852;26;20243;-79
2024/05/07 05:17:13;;;;;;;24.23;20.80;;;14.70;99.90;;;;;;5447260;26;20748;-81
2024/05/07 05:19:39;;;;;;;26.10;21.00;;;14.70;99.90;;;;;;5445004;26;20282;-78
2024/05/07 05:22:04;;;;;;;25.77;20.63;;;14.70;99.90;;;;;;5446585;26;20411;-81
2024/05/07 05:24:30;;;;;;;23.93;19.57;;;14.70;99.90;;;;;;5443703;26;20236;-82
2024/05/07 05:26:55;;;;;;;22.87;19.23;;;14.60;99.90;;;;;;5444704;26;20293;-81
2024/05/07 05:29:21;;;;;;;20.33;17.60;;;14.60;99.90;;;;;;5410232;26;20237;-81
2024/05/07 05:31:46;;;;;;;24.10;19.37;;;14.60;99.90;;;;;;5445939;26;20275;-81
2024/05/07 05:34:12;;;;;;;22.23;18.40;;;14.50;99.90;;;;;;5410379;26;20815;-80
2024/05/07 05:36:41;;;;;;;21.33;17.67;;;14.60;99.90;;;;;;5446159;26;20349;-80
2024/05/07 05:39:07;;;;;;;20.30;17.50;;;14.60;99.90;;;;;;5409873;26;20848;-80
2024/05/07 05:41:33;;;;;;;20.53;17.37;;;14.60;99.90;;;;;;5447522;26;20251;-80
2024/05/07 05:44:00;;;;;;;26.07;18.23;;;14.60;99.90;;;;;;5442434;26;20628;-81
2024/05/07 05:46:26;;;;;;;21.90;18.00;;;14.60;99.90;;;;;;5443918;26;20236;-80
2024/05/07 05:48:52;;;;;;;22.87;18.23;;;14.60;99.90;;;;;;5446203;26;20294;-80
2024/05/07 05:51:18;;;;;;;23.13;18.00;;;14.60;99.90;;;;;;5438453;26;20295;-80
2024/05/07 05:53:44;;;;;;;21.57;17.53;;;14.60;99.90;;;;;;5436675;26;20331;-80
2024/05/07 05:56:09;;;;;;;23.60;18.63;;;14.70;99.90;;;;;;5410343;26;20248;-80
2024/05/07 05:58:35;;;;;;;24.27;19.33;;;14.80;99.90;;;;;;5437853;26;20767;-79
2024/05/07 06:01:01;;;;;;;29.77;19.30;;;14.80;99.90;;;;;;5445204;26;20284;-79
2024/05/07 06:03:27;;;;;;;26.47;18.03;;;14.70;99.90;;;;;;5446892;26;20228;-79
2024/05/07 06:05:54;;;;;;;21.43;18.23;;;14.70;99.90;;;;;;5447278;26;20247;-82
2024/05/07 06:08:19;;;;;;;22.47;18.53;;;14.70;99.90;;;;;;5427933;26;20248;-81
2024/05/07 06:10:45;;;;;;;26.07;19.03;;;14.60;99.90;;;;;;5445216;26;20265;-81
2024/05/07 06:13:14;;;;;;;21.60;19.27;;;14.70;99.90;;;;;;5446722;26;20235;-82
2024/05/07 06:15:40;;;;;;;22.23;19.33;;;14.80;99.90;;;;;;5445855;26;20323;-82
2024/05/07 06:18:07;;;;;;;25.17;19.10;;;14.80;99.90;;;;;;5445691;26;20240;-81
2024/05/07 06:20:33;;;;;;;20.97;18.67;;;14.80;99.90;;;;;;5445734;26;20304;-80
2024/05/07 06:22:58;;;;;;;23.53;20.37;;;14.80;99.90;;;;;;5443761;26;20275;-82
2024/05/07 06:25:24;;;;;;;22.80;18.90;;;14.70;99.90;;;;;;5442369;26;20285;-79
2024/05/07 06:27:49;;;;;;;23.90;19.10;;;14.80;99.90;;;;;;5443920;26;20727;-80
2024/05/07 06:30:15;;;;;;;25.30;19.53;;;14.90;99.90;;;;;;5408977;26;20284;-80
2024/05/07 06:32:40;;;;;;;26.20;19.10;;;14.90;99.90;;;;;;5436574;26;20245;-79
2024/05/07 06:35:06;;;;;;;21.77;17.93;;;14.90;99.90;;;;;;5444816;26;20601;-80
2024/05/07 06:37:31;;;;;;;24.27;19.23;;;14.90;99.90;;;;;;5444533;26;20605;-81
2024/05/07 06:39:57;;;;;;;19.87;17.73;;;14.90;99.90;;;;;;5426375;26;20234;-81
2024/05/07 06:42:22;;;;;;;20.20;18.10;;;14.90;99.90;;;;;;5408002;26;20271;-79
2024/05/07 06:44:48;;;;;;;23.20;17.90;;;14.90;99.90;;;;;;5439868;26;20289;-81
2024/05/07 06:47:14;;;;;;;21.70;18.27;;;14.90;99.90;;;;;;5409507;26;20237;-81
2024/05/07 06:49:39;;;;;;;22.70;17.87;;;14.90;99.90;;;;;;5437903;26;20265;-81
2024/05/07 06:52:05;;;;;;;21.70;18.07;;;14.90;99.90;;;;;;5445078;26;20286;-81
2024/05/07 06:54:30;;;;;;;20.03;17.60;;;14.90;99.90;;;;;;5442697;26;20236;-81
2024/05/07 06:56:56;;;;;;;22.97;18.63;;;14.80;99.90;;;;;;5409434;26;20237;-81
2024/05/07 06:59:21;;;;;;;20.47;18.37;;;14.90;99.90;;;;;;5412184;26;20568;-81
2024/05/07 07:01:47;;;;;;;21.27;18.83;;;14.90;99.90;;;;;;5412363;26;20693;-81
2024/05/07 07:04:13;;;;;;;22.10;19.10;;;14.90;99.90;;;;;;5446193;26;20757;-80
2024/05/07 07:06:38;;;;;;;20.33;17.70;;;15.00;99.90;;;;;;5446505;26;20232;-80
2024/05/07 07:09:04;;;;;;;19.63;17.57;;;15.00;99.90;;;;;;5448361;26;20290;-81
2024/05/07 07:11:30;;;;;;;20.07;17.73;;;14.90;99.90;;;;;;5448359;26;20290;-80
2024/05/07 07:13:56;;;;;;;23.27;17.73;;;14.90;99.90;;;;;;5446713;26;20228;-81
2024/05/07 07:16:21;;;;;;;20.67;17.83;;;14.90;99.90;;;;;;5447379;26;20324;-80
2024/05/07 07:18:47;;;;;;;24.50;18.30;;;14.90;99.90;;;;;;5448440;26;20240;-81
2024/05/07 07:21:14;;;;;;;21.33;17.97;;;15.10;99.90;;;;;;5449011;26;20393;-80
2024/05/07 07:23:40;;;;;;;23.40;17.83;;;14.90;99.90;;;;;;5437153;26;20237;-80
2024/05/07 07:26:06;;;;;;;21.73;18.60;;;15.00;99.90;;;;;;5447572;26;21174;-79
2024/05/07 07:28:31;;;;;;;21.10;18.10;;;15.00;99.90;;;;;;5450241;26;20267;-80
2024/05/07 07:30:57;;;;;;;30.70;18.97;;;15.00;99.90;;;;;;5446664;26;20672;-80
2024/05/07 07:33:22;;;;;;;27.03;18.20;;;14.90;99.90;;;;;;5449086;26;20243;-80
2024/05/07 07:35:48;;;;;;;21.10;18.80;;;15.00;99.90;;;;;;5448155;26;20287;-81
2024/05/07 07:38:14;;;;;;;25.00;20.10;;;15.10;99.90;;;;;;5446915;26;20247;-82
2024/05/07 07:40:40;;;;;;;23.50;20.33;;;15.10;99.90;;;;;;5412693;26;20657;-82
2024/05/07 07:43:07;;;;;;;23.53;19.60;;;15.20;99.90;;;;;;5448408;26;20670;-80
2024/05/07 07:45:33;;;;;;;25.43;20.73;;;15.30;99.90;;;;;;5415169;26;20235;-82
2024/05/07 07:47:59;;;;;;;25.87;20.90;;;15.30;99.90;;;;;;5432818;26;20246;-81
2024/05/07 07:50:24;;;;;;;24.07;20.97;;;15.50;99.90;;;;;;5453171;26;20282;-81
2024/05/07 07:52:50;;;;;;;26.17;21.30;;;15.50;99.90;;;;;;5414745;26;20243;-82
2024/05/07 07:55:15;;;;;;;25.00;20.23;;;15.50;99.90;;;;;;5444013;26;20239;-82
2024/05/07 07:57:41;;;;;;;23.17;19.73;;;15.60;99.90;;;;;;5446183;26;20240;-80
2024/05/07 08:00:07;;;;;;;21.30;19.03;;;15.60;99.90;;;;;;5448600;26;20996;-80
2024/05/07 08:02:33;;;;;;;22.73;19.33;;;15.70;99.90;;;;;;5448065;26;20245;-81
2024/05/07 08:04:58;;;;;;;21.27;19.03;;;15.70;99.90;;;;;;5445674;26;20314;-79
2024/05/07 08:07:24;;;;;;;21.33;18.87;;;15.70;99.90;;;;;;5410813;26;20743;-80
2024/05/07 08:09:49;;;;;;;21.53;18.17;;;15.80;99.90;;;;;;5444248;26;20422;-80
2024/05/07 08:12:15;;;;;;;22.73;20.30;;;15.90;99.90;;;;;;5447582;26;21200;-81
2024/05/07 08:14:40;;;;;;;20.70;18.57;;;15.80;99.90;;;;;;5445906;26;20724;-81
2024/05/07 08:17:06;;;;;;;21.57;19.30;;;16.00;99.90;;;;;;5411395;26;20259;-81
2024/05/07 08:19:33;;;;;;;21.33;17.63;;;16.10;99.90;;;;;;5447229;26;20305;-81
2024/05/07 08:21:59;;;;;;;20.27;18.17;;;16.10;99.90;;;;;;5411163;26;20412;-81
2024/05/07 08:24:25;;;;;;;19.63;17.63;;;16.20;99.90;;;;;;5442658;26;20249;-81
2024/05/07 08:26:50;;;;;;;22.73;18.07;;;16.30;99.90;;;;;;5448181;26;20640;-82
2024/05/07 08:29:16;;;;;;;22.00;19.60;;;16.50;99.90;;;;;;5446322;26;20284;-80
2024/05/07 08:31:41;;;;;;;21.07;18.23;;;16.60;99.90;;;;;;5411116;26;20336;-82
2024/05/07 08:34:07;;;;;;;22.33;19.93;;;16.70;99.90;;;;;;5445052;26;20626;-79
2024/05/07 08:36:32;;;;;;;19.37;17.37;;;16.70;99.90;;;;;;5411249;26;20272;-79
2024/05/07 08:38:58;;;;;;;21.00;18.53;;;16.60;99.90;;;;;;5443000;26;20248;-80
2024/05/07 08:41:23;;;;;;;22.07;18.40;;;16.70;99.90;;;;;;5447968;26;20307;-80
2024/05/07 08:43:49;;;;;;;20.57;18.37;;;16.70;99.90;;;;;;5442612;26;20301;-80
2024/05/07 08:46:16;;;;;;;20.53;18.50;;;16.90;99.90;;;;;;5445486;26;20230;-80
2024/05/07 08:48:44;;;;;;;20.63;18.47;;;16.70;99.90;;;;;;5447290;26;20309;-80
2024/05/07 08:51:10;;;;;;;21.20;19.00;;;16.80;99.90;;;;;;5445223;26;20247;-80
2024/05/07 08:53:35;;;;;;;21.70;19.37;;;16.90;99.90;;;;;;5411307;26;20286;-80
2024/05/07 08:56:02;;;;;;;19.50;17.40;;;17.00;99.90;;;;;;5408770;26;20606;-80
2024/05/07 08:58:28;;;;;;;19.77;17.77;;;17.00;99.90;;;;;;5409244;26;20321;-80
2024/05/07 09:00:54;;;;;;;25.80;18.27;;;16.90;99.90;;;;;;5446241;26;20239;-81
2024/05/07 09:03:20;;;;;;;20.10;17.97;;;16.90;99.90;;;;;;5447273;26;20737;-81
2024/05/07 09:05:46;;;;;;;23.13;18.23;;;17.00;99.90;;;;;;5445408;26;20243;-81
2024/05/07 09:08:16;;;;;;;20.03;17.93;;;17.00;99.90;;;;;;5410458;26;20247;-81
2024/05/07 09:10:48;;;;;;;21.27;18.17;;;17.00;99.90;;;;;;5444492;26;20291;-81
2024/05/07 09:13:26;;;;;;;25.70;18.73;;;17.00;99.90;;;;;;5412664;26;20284;-80
2024/05/07 09:15:54;;;;;;;22.27;17.97;;;17.00;99.90;;;;;;5410052;26;20233;-81
2024/05/07 09:18:24;;;;;;;21.77;18.23;;;17.00;99.90;;;;;;5408735;26;20782;-81
2024/05/07 09:20:49;;;;;;;26.97;19.57;;;17.00;99.90;;;;;;5445294;26;20582;-79
2024/05/07 09:23:18;;;;;;;20.73;18.50;;;17.20;99.90;;;;;;5408982;26;20576;-81
2024/05/07 09:25:44;;;;;;;24.50;18.60;;;17.10;99.90;;;;;;5447806;26;20281;-78
2024/05/07 09:28:09;;;;;;;22.07;18.03;;;17.10;99.90;;;;;;5422936;26;20729;-80
2024/05/07 09:30:35;;;;;;;20.00;16.80;;;17.10;99.90;;;;;;5444389;26;20251;-82
2024/05/07 09:33:03;;;;;;;20.83;18.73;;;17.30;99.90;;;;;;5411807;26;20252;-81
2024/05/07 09:35:36;;;;;;;20.67;18.37;;;17.40;99.90;;;;;;5445976;26;20251;-80
2024/05/07 09:38:03;;;;;;;20.67;18.47;;;17.40;99.90;;;;;;5410447;26;20721;-80
2024/05/07 09:40:32;;;;;;;21.23;19.03;;;17.50;99.90;;;;;;5443655;26;20589;-80
2024/05/07 09:43:15;;;;;;;24.43;18.63;;;17.60;99.90;;;;;;5446528;26;20232;-81
2024/05/07 09:45:59;;;;;;;20.60;18.40;;;17.60;99.90;;;;;;5437915;26;20300;-80
2024/05/07 09:48:26;;;;;;;20.07;17.40;;;17.70;99.90;;;;;;5438388;26;20269;-79
2024/05/07 09:50:52;;;;;;;21.17;17.50;;;17.70;99.90;;;;;;5408480;26;20461;-80
2024/05/07 09:53:18;;;;;;;20.07;17.57;;;17.80;99.90;;;;;;5436289;26;20288;-81
2024/05/07 09:55:54;;;;;;;18.73;16.73;;;17.80;99.90;;;;;;5442996;26;20232;-80
2024/05/07 09:58:20;;;;;;;18.07;16.00;;;17.80;99.90;;;;;;5438600;26;20262;-79
2024/05/07 10:00:47;;;;;;;18.97;16.23;;;17.80;99.90;;;;;;5444837;26;20240;-80
2024/05/07 10:03:12;;;;;;;20.77;16.87;;;17.90;99.90;;;;;;5446350;26;20232;-79
2024/05/07 10:05:38;;;;;;;19.03;16.53;;;17.90;99.90;;;;;;5438162;26;20763;-82
2024/05/07 10:08:11;;;;;;;18.77;16.87;;;17.90;99.90;;;;;;5408382;26;20297;-80
2024/05/07 10:10:38;;;;;;;21.30;17.13;;;17.90;99.90;;;;;;5443606;26;20295;-81
2024/05/07 10:13:06;;;;;;;24.17;21.20;;;17.80;99.90;;;;;;5443362;26;20282;-81
2024/05/07 10:15:32;;;;;;;19.67;17.63;;;17.80;99.90;;;;;;5443615;26;20244;-82
2024/05/07 10:18:00;;;;;;;21.03;18.17;;;17.80;99.90;;;;;;5445843;26;20290;-80
2024/05/07 10:20:26;;;;;;;23.70;17.80;;;17.70;99.90;;;;;;5435431;26;20274;-81
2024/05/07 10:23:04;;;;;;;20.20;18.10;;;17.70;99.90;;;;;;5409113;26;20261;-82
2024/05/07 10:25:40;;;;;;;18.83;16.83;;;17.60;99.90;;;;;;5407619;26;20244;-82
2024/05/07 10:28:10;;;;;;;19.77;17.77;;;17.40;99.90;;;;;;5443397;26;20770;-82
2024/05/07 10:30:36;;;;;;;23.03;18.00;;;17.50;99.90;;;;;;5445588;26;20240;-83
2024/05/07 10:33:03;;;;;;;22.17;18.43;;;17.50;99.90;;;;;;5444523;26;20723;-81
2024/05/07 10:35:28;;;;;;;19.87;17.80;;;17.50;99.90;;;;;;5409501;26;20288;-80
2024/05/07 10:37:58;;;;;;;21.13;17.73;;;17.60;99.90;;;;;;5437073;26;20480;-79
2024/05/07 10:40:25;;;;;;;21.43;19.03;;;17.80;99.90;;;;;;5408392;26;20267;-82
2024/05/07 10:42:51;;;;;;;20.47;18.37;;;17.80;99.90;;;;;;5445042;26;20304;-81
2024/05/07 10:45:17;;;;;;;21.73;18.13;;;18.00;99.90;;;;;;5404337;26;20245;-80
2024/05/07 10:47:43;;;;;;;19.43;17.30;;;18.20;99.90;;;;;;5444984;26;20282;-79
2024/05/07 10:50:09;;;;;;;19.57;17.50;;;18.10;99.90;;;;;;5445372;26;20236;-81
2024/05/07 10:52:34;;;;;;;19.80;15.93;;;18.20;99.90;;;;;;5443516;26;20244;-81
2024/05/07 10:55:01;;;;;;;18.93;15.97;;;18.30;99.90;;;;;;5427100;26;20228;-81
2024/05/07 10:57:30;;;;;;;20.03;15.20;;;18.50;99.90;;;;;;5445514;26;20293;-81
2024/05/07 10:59:56;;;;;;;16.60;14.23;;;18.60;99.90;;;;;;5442466;26;20273;-80
2024/05/07 11:02:25;;;;;;;16.73;15.03;;;18.70;99.90;;;;;;5447345;26;20305;-80
2024/05/07 11:04:51;;;;;;;16.10;14.57;;;18.70;99.90;;;;;;5455503;26;20287;-81
2024/05/07 11:07:23;;;;;;;17.20;15.40;;;18.80;99.90;;;;;;5462899;26;20240;-81
2024/05/07 11:09:59;;;;;;;18.23;16.20;;;18.80;99.90;;;;;;5409979;26;20237;-79
2024/05/07 11:12:26;;;;;;;18.90;16.93;;;18.90;99.90;;;;;;5407862;26;20294;-80
2024/05/07 11:14:55;;;;;;;24.30;16.97;;;18.90;99.90;;;;;;5442272;26;20753;-79
2024/05/07 11:17:21;;;;;;;20.57;18.40;;;19.00;99.90;;;;;;5445177;26;20500;-80
2024/05/07 11:19:47;;;;;;;19.60;17.60;;;19.00;99.90;;;;;;5445021;26;20639;-81
2024/05/07 11:22:14;;;;;;;20.53;18.33;;;18.90;99.90;;;;;;5445384;26;20348;-80
2024/05/07 11:24:42;;;;;;;20.13;18.13;;;18.90;99.90;;;;;;5443034;26;20282;-80
2024/05/07 11:27:08;;;;;;;20.57;18.33;;;18.90;99.90;;;;;;5446847;26;20244;-80
2024/05/07 11:29:33;;;;;;;20.63;18.43;;;18.70;99.90;;;;;;5444970;26;20236;-80
2024/05/07 11:31:59;;;;;;;20.17;18.27;;;18.50;99.90;;;;;;5444195;26;20278;-82
2024/05/07 11:34:25;;;;;;;20.03;18.00;;;18.50;99.90;;;;;;5422933;26;20318;-80
2024/05/07 11:36:50;;;;;;;20.57;18.57;;;18.40;99.90;;;;;;5443252;26;20224;-82
2024/05/07 11:39:16;;;;;;;22.60;20.30;;;18.40;99.90;;;;;;5441863;26;20248;-80
2024/05/07 11:41:43;;;;;;;20.53;18.50;;;18.50;99.90;;;;;;5444452;26;20628;-81
2024/05/07 11:44:09;;;;;;;20.70;18.67;;;18.50;99.90;;;;;;5426000;26;20249;-80
2024/05/07 11:46:34;;;;;;;19.10;17.20;;;18.50;99.90;;;;;;5445352;26;20244;-80
2024/05/07 11:49:00;;;;;;;22.70;17.43;;;18.50;99.90;;;;;;5448852;26;20240;-81
2024/05/07 11:51:26;;;;;;;18.27;16.47;;;18.60;99.90;;;;;;5447364;26;20270;-80
2024/05/07 11:53:51;;;;;;;17.60;15.77;;;18.70;99.90;;;;;;5421900;26;20244;-82
2024/05/07 11:56:18;;;;;;;20.43;18.33;;;18.60;99.90;;;;;;5447954;26;20631;-80
2024/05/07 11:58:45;;;;;;;18.83;16.93;;;18.60;99.90;;;;;;5447153;26;20288;-80
2024/05/07 12:01:11;;;;;;;19.13;17.23;;;18.70;99.90;;;;;;5448688;26;20312;-82
2024/05/07 12:03:37;;;;;;;19.73;17.73;;;18.80;99.90;;;;;;5446524;26;20236;-82
2024/05/07 12:06:03;;;;;;;18.00;16.10;;;18.90;99.90;;;;;;5413119;26;20370;-81
2024/05/07 12:08:29;;;;;;;16.23;14.63;;;19.00;99.90;;;;;;5442280;26;20303;-80
2024/05/07 12:10:55;;;;;;;16.10;14.57;;;18.90;99.90;;;;;;5414330;26;20383;-79
2024/05/07 12:13:20;;;;;;;16.07;14.67;;;19.00;99.90;;;;;;5413142;26;20854;-80
2024/05/07 12:15:46;;;;;;;14.70;13.20;;;19.10;99.90;;;;;;5410723;26;20639;-80
2024/05/07 12:18:12;;;;;;;19.00;12.40;;;19.20;99.90;;;;;;5446840;26;20749;-80
2024/05/07 12:20:37;;;;;;;14.17;12.00;;;19.30;99.90;;;;;;5447733;26;20344;-82
2024/05/07 12:26:04;;;;;;;13.53;11.90;;;19.20;99.90;;;;;;5411112;26;20276;-79